Time;durP1;ratioP1;P1;durP2;ratioP2;P2;SDS_P1;SDS_P2;PMS_P1;PMS_P2;Temp;Humidity;BMP_temperature;BMP_pressure;BME280_temperature;BME280_humidity;BME280_pressure;Samples;Min_cycle;Max_cycle;Signal;HPM_P1;HPM_P2
2022/03/20 00:00:28;;;;;;;17.77;9.30;;;;;;;2.71;34.14;97196.50;5028655;28;20240;-65
2022/03/20 00:03:24;;;;;;;16.23;9.35;;;;;;;2.80;33.88;97193.00;5029620;28;20184;-65
2022/03/20 00:05:57;;;;;;;14.93;8.85;;;;;;;2.84;33.71;97188.34;5027954;28;20204;-64
2022/03/20 00:08:26;;;;;;;12.82;8.45;;;;;;;2.78;33.36;97191.53;5030042;28;20209;-66
2022/03/20 00:14:00;;;;;;;16.00;9.40;;;;;;;2.71;33.60;97212.03;5027616;28;20984;-64
2022/03/20 00:16:31;;;;;;;14.80;9.07;;;;;;;2.80;33.58;97197.38;5029376;28;20205;-65
2022/03/20 00:19:05;;;;;;;19.85;10.60;;;;;;;2.59;34.14;97194.31;5028368;28;20204;-65
2022/03/20 00:21:36;;;;;;;16.20;10.18;;;;;;;2.51;34.34;97192.47;5028798;28;20262;-66
2022/03/20 00:24:06;;;;;;;16.52;10.00;;;;;;;3.45;33.43;97188.19;5028514;28;20190;-64
2022/03/20 00:26:39;;;;;;;18.30;10.25;;;;;;;3.58;33.14;97188.56;5029254;28;20208;-65
2022/03/20 00:29:17;;;;;;;15.90;9.27;;;;;;;3.58;33.21;97197.16;5027550;28;20960;-64
2022/03/20 00:31:44;;;;;;;18.80;9.35;;;;;;;3.76;32.79;97189.28;5028939;28;20205;-65
2022/03/20 00:34:40;;;;;;;13.73;8.98;;;;;;;3.79;32.47;97181.19;5028042;28;20232;-65
2022/03/20 00:37:09;;;;;;;12.98;8.10;;;;;;;3.76;32.41;97184.91;5031490;28;20287;-67
2022/03/20 00:39:41;;;;;;;13.90;8.32;;;;;;;3.71;32.71;97192.34;5032276;28;20205;-65
2022/03/20 00:42:13;;;;;;;12.77;8.65;;;;;;;3.59;32.71;97185.00;5033279;28;20189;-65
2022/03/20 00:44:40;;;;;;;15.57;9.68;;;;;;;3.43;32.69;97177.19;5032386;28;20189;-65
2022/03/20 00:47:07;;;;;;;13.95;8.75;;;;;;;3.41;32.80;97190.28;5033261;28;20758;-65
2022/03/20 00:50:07;;;;;;;15.50;9.02;;;;;;;3.52;33.11;97178.84;5032536;28;20220;-65
2022/03/20 00:53:02;;;;;;;16.23;9.10;;;;;;;3.48;33.09;97177.50;5032880;28;20235;-63
2022/03/20 00:55:34;;;;;;;16.23;8.05;;;;;;;2.39;34.18;97185.09;5032667;28;20625;-64
2022/03/20 00:58:03;;;;;;;17.10;8.60;;;;;;;2.30;34.76;97189.34;5032530;28;20660;-64
2022/03/20 01:00:42;;;;;;;14.75;8.38;;;;;;;2.35;34.43;97181.97;5031795;28;20241;-67
2022/03/20 01:03:17;;;;;;;16.08;8.25;;;;;;;2.45;34.58;97187.88;5031514;28;20585;-64
2022/03/20 01:05:51;;;;;;;13.38;7.90;;;;;;;2.00;35.15;97189.72;5032121;28;20743;-65
2022/03/20 01:08:19;;;;;;;15.38;8.32;;;;;;;2.01;35.57;97194.75;5032495;28;20189;-62
2022/03/20 01:10:47;;;;;;;17.10;9.65;;;;;;;2.19;35.24;97184.41;5031955;28;20205;-64
2022/03/20 01:13:15;;;;;;;19.17;10.85;;;;;;;2.25;35.05;97190.75;5032238;28;20362;-64
2022/03/20 01:15:49;;;;;;;21.92;11.38;;;;;;;2.19;35.24;97186.19;5032175;28;20205;-64
2022/03/20 01:18:17;;;;;;;19.23;10.27;;;;;;;2.29;35.34;97177.38;5032137;28;20281;-65
2022/03/20 01:20:48;;;;;;;21.17;11.43;;;;;;;2.23;35.76;97180.56;5031865;28;20205;-65
2022/03/20 01:23:16;;;;;;;20.05;10.77;;;;;;;2.19;35.60;97175.84;5032348;28;20192;-66
2022/03/20 01:26:32;;;;;;;19.85;10.43;;;;;;;2.05;35.44;97174.56;5032232;28;20212;-62
2022/03/20 01:29:55;;;;;;;17.75;10.30;;;;;;;2.23;35.12;97169.44;5031600;28;20259;-67
2022/03/20 01:32:49;;;;;;;20.77;10.63;;;;;;;2.11;35.17;97161.06;5032020;28;20263;-63
2022/03/20 01:41:46;;;;;;;17.83;10.90;;;;;;;0.44;38.73;97169.94;5031420;28;20205;-63
2022/03/20 01:44:38;;;;;;;19.60;11.32;;;;;;;1.23;37.80;97170.41;5031743;28;20183;-62
2022/03/20 01:47:29;;;;;;;19.50;10.85;;;;;;;1.19;37.02;97159.56;5031876;28;20212;-65
2022/03/20 01:50:48;;;;;;;18.20;10.48;;;;;;;1.66;36.58;97174.00;5031758;28;20683;-63
2022/03/20 01:53:19;;;;;;;19.40;11.05;;;;;;;1.69;36.86;97175.50;5032343;28;20259;-62
2022/03/20 01:55:53;;;;;;;21.15;11.10;;;;;;;1.55;36.87;97176.00;5031045;28;20209;-62
2022/03/20 01:58:26;;;;;;;19.02;10.02;;;;;;;1.64;36.41;97181.09;5030480;28;20201;-63
2022/03/20 02:00:57;;;;;;;14.43;8.65;;;;;;;1.78;35.99;97182.38;5030833;28;20244;-61
2022/03/20 02:03:53;;;;;;;15.25;8.18;;;;;;;1.61;36.36;97180.56;5032984;28;20204;-62
2022/03/20 02:06:25;;;;;;;15.05;8.68;;;;;;;1.38;36.28;97184.50;5032504;28;20205;-61
2022/03/20 02:09:02;;;;;;;15.43;8.38;;;;;;;1.36;36.27;97178.66;5030386;28;20690;-64
2022/03/20 02:11:57;;;;;;;12.93;8.43;;;;;;;1.50;36.76;97186.75;5031144;28;20205;-65
2022/03/20 02:14:30;;;;;;;16.10;8.35;;;;;;;1.03;36.94;97178.25;5031659;28;20201;-64
2022/03/20 02:17:03;;;;;;;17.23;8.15;;;;;;;1.26;36.93;97190.81;5031822;28;20616;-63
2022/03/20 02:19:35;;;;;;;13.55;7.80;;;;;;;1.14;37.21;97191.94;5030707;28;20561;-65
2022/03/20 02:22:05;;;;;;;12.85;7.85;;;;;;;1.27;36.21;97185.50;5030773;28;20203;-63
2022/03/20 02:24:44;;;;;;;14.70;8.27;;;;;;;1.16;36.94;97179.69;5030028;28;20193;-63
2022/03/20 02:27:18;;;;;;;13.95;8.15;;;;;;;0.68;38.06;97180.66;5030656;28;20209;-64
2022/03/20 02:29:49;;;;;;;13.85;8.00;;;;;;;0.78;37.61;97178.88;5029828;28;20199;-63
2022/03/20 02:32:23;;;;;;;12.88;7.63;;;;;;;0.29;38.55;97186.81;5032098;28;20237;-62
2022/03/20 02:34:56;;;;;;;15.93;8.38;;;;;;;0.06;39.06;97197.50;5036607;28;20223;-62
2022/03/20 02:37:24;;;;;;;13.73;7.53;;;;;;;0.31;38.90;97189.25;5032039;28;20213;-61
2022/03/20 02:39:55;;;;;;;14.05;7.18;;;;;;;0.32;38.93;97181.38;5030197;28;20216;-61
2022/03/20 02:42:30;;;;;;;15.15;8.13;;;;;;;0.75;39.29;97186.88;5030664;28;20209;-65
2022/03/20 02:45:09;;;;;;;13.98;8.30;;;;;;;1.23;37.66;97184.16;5030002;28;20216;-65
2022/03/20 02:47:42;;;;;;;14.80;8.85;;;;;;;1.19;38.02;97185.38;5030979;28;20617;-62
2022/03/20 02:50:13;;;;;;;13.98;8.77;;;;;;;1.30;38.19;97171.47;5030063;28;20212;-63
2022/03/20 02:55:45;;;;;;;57.95;29.13;;;;;;;0.94;38.64;97179.09;5028714;28;20223;-65
2022/03/20 02:58:21;;;;;;;53.13;26.92;;;;;;;1.17;38.57;97181.34;5029787;28;20239;-64
2022/03/20 03:00:55;;;;;;;59.50;29.23;;;;;;;1.27;38.29;97187.25;5028043;28;20224;-61
2022/03/20 03:03:27;;;;;;;59.53;29.42;;;;;;;1.23;38.43;97185.91;5029096;28;20206;-63
2022/03/20 03:05:58;;;;;;;55.67;28.60;;;;;;;1.34;38.33;97172.81;5029237;28;20208;-64
2022/03/20 03:11:20;;;;;;;52.75;26.58;;;;;;;1.23;38.28;97167.84;5030962;28;20189;-63
2022/03/20 03:13:54;;;;;;;47.80;25.80;;;;;;;1.20;38.34;97175.88;5030333;28;20312;-62
2022/03/20 03:16:24;;;;;;;44.90;23.48;;;;;;;1.09;37.92;97184.63;5030884;28;20289;-63
2022/03/20 03:19:16;;;;;;;40.30;22.63;;;;;;;1.22;38.27;97173.97;5029302;28;20208;-63
2022/03/20 03:21:52;;;;;;;49.25;23.90;;;;;;;0.98;38.35;97174.47;5030276;28;20189;-64
2022/03/20 03:24:20;;;;;;;47.15;24.73;;;;;;;1.07;37.94;97175.38;5029008;28;20209;-64
2022/03/20 03:26:47;;;;;;;44.80;23.45;;;;;;;0.93;38.15;97180.03;5029931;28;20661;-63
2022/03/20 03:29:16;;;;;;;40.83;21.23;;;;;;;1.09;37.90;97179.47;5028455;28;20201;-64
2022/03/20 03:32:09;;;;;;;34.65;20.23;;;;;;;1.06;37.96;97184.09;5030746;28;20220;-66
2022/03/20 03:35:43;;;;;;;35.50;18.98;;;;;;;1.07;38.01;97180.53;5030238;28;20255;-64
2022/03/20 03:38:14;;;;;;;31.85;18.05;;;;;;;1.02;37.76;97184.34;5028428;28;20209;-63
2022/03/20 03:40:49;;;;;;;37.53;21.13;;;;;;;1.44;37.24;97191.69;5029764;28;20567;-63
2022/03/20 03:43:18;;;;;;;38.30;19.45;;;;;;;1.63;37.08;97189.81;5029866;28;20227;-64
2022/03/20 03:45:56;;;;;;;35.83;19.50;;;;;;;1.67;36.66;97180.00;5029676;28;20193;-63
2022/03/20 03:48:25;;;;;;;38.22;20.30;;;;;;;1.64;36.49;97182.88;5030095;28;20267;-65
2022/03/20 03:51:04;;;;;;;35.17;19.02;;;;;;;1.68;36.57;97186.81;5029375;28;20287;-63
2022/03/20 03:53:37;;;;;;;32.17;17.20;;;;;;;1.77;36.64;97180.78;5029204;28;20229;-62
2022/03/20 03:56:06;;;;;;;30.33;18.35;;;;;;;1.94;37.85;97183.38;5029583;28;20185;-64
2022/03/20 03:58:33;;;;;;;30.88;17.58;;;;;;;2.00;36.97;97181.97;5029711;28;20197;-63
2022/03/20 04:01:01;;;;;;;29.77;17.05;;;;;;;2.11;36.02;97186.94;5028456;28;20241;-63
2022/03/20 04:06:52;;;;;;;31.08;17.90;;;;;;;2.06;36.29;97176.22;5029218;28;20271;-61
2022/03/20 04:09:25;;;;;;;29.95;17.85;;;;;;;1.72;36.38;97188.13;5028730;28;20184;-65
2022/03/20 04:11:57;;;;;;;36.75;19.85;;;;;;;1.48;38.03;97180.13;5028601;28;20204;-65
2022/03/20 04:14:30;;;;;;;35.28;19.00;;;;;;;0.81;38.77;97181.16;5028769;28;20679;-62
2022/03/20 04:16:57;;;;;;;33.67;18.48;;;;;;;1.25;38.20;97190.00;5029593;28;20251;-62
2022/03/20 04:19:26;;;;;;;37.08;20.05;;;;;;;1.74;37.36;97171.53;5028660;28;20209;-62
2022/03/20 04:22:20;;;;;;;39.67;19.52;;;;;;;1.66;37.03;97176.59;5028839;28;20208;-62
2022/03/20 04:24:50;;;;;;;45.90;19.45;;;;;;;1.89;36.61;97184.75;5028589;28;20209;-64
2022/03/20 04:27:23;;;;;;;44.80;20.50;;;;;;;1.58;40.56;97191.19;5029428;28;20696;-63
2022/03/20 04:29:52;;;;;;;39.13;19.98;;;;;;;2.13;38.79;97187.59;5028797;28;20208;-62
2022/03/20 04:32:25;;;;;;;36.55;19.80;;;;;;;1.83;38.43;97169.81;5029239;28;20244;-64
2022/03/20 04:34:54;;;;;;;37.13;19.88;;;;;;;1.84;37.61;97186.97;5027486;28;20193;-65
2022/03/20 04:37:24;;;;;;;40.05;20.58;;;;;;;2.05;39.10;97192.69;5028682;28;20267;-64
2022/03/20 04:39:53;;;;;;;35.13;19.48;;;;;;;2.23;37.47;97177.97;5028682;28;20296;-65
2022/03/20 04:45:22;;;;;;;36.50;20.17;;;;;;;2.21;37.80;97192.81;5028396;28;20212;-63
2022/03/20 04:59:11;;;;;;;35.88;20.02;;;;;;;1.80;39.27;97201.16;5028503;28;20197;-66
2022/03/20 05:01:39;;;;;;;37.78;19.30;;;;;;;2.13;38.95;97202.28;5028287;28;20233;-66
2022/03/20 05:04:09;;;;;;;37.00;19.63;;;;;;;2.37;39.07;97203.34;5025992;28;20998;-63
2022/03/20 05:06:39;;;;;;;33.50;19.77;;;;;;;2.34;38.67;97206.22;5029602;28;20263;-64
2022/03/20 05:16:07;;;;;;;32.58;18.45;;;;;;;2.35;37.23;97202.69;5028295;28;20660;-63
2022/03/20 05:19:50;;;;;;;34.28;18.20;;;;;;;2.32;37.54;97202.16;5027652;28;20287;-64
2022/03/20 05:23:33;;;;;;;34.80;18.45;;;;;;;2.28;36.72;97211.97;5031365;28;20199;-64
2022/03/20 05:26:06;;;;;;;41.03;19.45;;;;;;;2.21;37.44;97210.16;5032357;28;20205;-64
2022/03/20 05:32:43;;;;;;;54.72;21.55;;;;;;;2.51;37.44;97213.16;5032100;28;20337;-64
2022/03/20 06:38:12;;;;;;;53.92;28.90;;;;;;;2.63;36.76;97243.03;4931416;29;20781;-68
2022/03/20 06:40:39;;;;;;;42.60;22.48;;;;;;;2.15;36.77;97247.75;4930283;29;20642;-58
2022/03/20 06:43:06;;;;;;;35.42;20.85;;;;;;;1.57;37.01;97249.03;4932180;29;20205;-61
2022/03/20 06:45:33;;;;;;;32.90;19.30;;;;;;;1.94;36.72;97249.78;4932490;29;20204;-60
2022/03/20 06:48:00;;;;;;;32.33;17.30;;;;;;;2.56;34.85;97242.00;4935200;29;20304;-59
2022/03/20 06:50:28;;;;;;;33.28;18.30;;;;;;;2.81;34.40;97241.22;4932733;29;20308;-57
2022/03/20 06:53:02;;;;;;;33.17;15.43;;;;;;;2.93;33.67;97244.41;4942772;29;20254;-60
2022/03/20 06:55:31;;;;;;;26.27;13.57;;;;;;;3.07;33.37;97257.63;4936339;29;20232;-57
2022/03/20 06:57:58;;;;;;;14.35;8.40;;;;;;;3.28;31.74;97243.50;4924970;29;20694;-61
2022/03/20 07:00:26;;;;;;;15.40;9.68;;;;;;;3.34;32.14;97235.13;4929644;29;20680;-61
2022/03/20 07:02:56;;;;;;;18.73;10.80;;;;;;;3.32;32.17;97250.00;4928799;29;20678;-53
2022/03/20 07:05:32;;;;;;;18.73;11.18;;;;;;;4.27;31.63;97238.38;4934417;29;20219;-62
2022/03/20 07:08:00;;;;;;;16.52;10.35;;;;;;;4.70;31.07;97230.34;4950716;29;20698;-61
2022/03/20 07:10:27;;;;;;;24.00;13.18;;;;;;;4.72;31.41;97233.59;4943276;29;20710;-61
2022/03/20 07:15:46;;;;;;;21.13;12.38;;;;;;;5.22;30.29;97230.75;4896277;29;20228;-59
2022/03/20 07:18:16;;;;;;;18.00;10.85;;;;;;;5.16;29.81;97236.66;4932220;29;20189;-58
2022/03/20 07:20:45;;;;;;;19.30;12.00;;;;;;;5.42;30.60;97237.22;4932133;29;20211;-61
2022/03/20 07:23:13;;;;;;;23.15;12.93;;;;;;;5.60;29.69;97229.22;4932831;29;20207;-65
2022/03/20 07:31:13;;;;;;;19.05;10.95;;;;;;;5.32;28.98;97226.22;4932248;29;20239;-60
2022/03/20 07:33:41;;;;;;;20.23;10.63;;;;;;;5.68;29.03;97226.59;4932698;29;20224;-61
2022/03/20 07:36:08;;;;;;;15.20;10.68;;;;;;;5.92;28.87;97223.91;4931841;29;20335;-59
2022/03/20 07:38:35;;;;;;;19.83;10.95;;;;;;;6.06;29.05;97226.63;4932273;29;20287;-57
2022/03/20 07:41:05;;;;;;;16.50;10.52;;;;;;;6.12;28.79;97225.94;4932051;29;20196;-57
2022/03/20 07:43:31;;;;;;;16.52;11.02;;;;;;;6.28;28.82;97227.63;4931340;29;20705;-55
2022/03/20 07:46:00;;;;;;;19.25;9.73;;;;;;;6.38;28.01;97223.03;4931759;29;20577;-59
2022/03/20 07:48:26;;;;;;;15.80;9.82;;;;;;;6.46;28.40;97222.97;4932544;29;20212;-56
2022/03/20 07:50:53;;;;;;;17.60;9.43;;;;;;;6.85;27.63;97212.41;4931263;29;20208;-57
2022/03/20 07:53:20;;;;;;;15.15;10.10;;;;;;;6.91;27.97;97215.16;4929341;29;20221;-57
2022/03/20 07:55:47;;;;;;;14.85;9.50;;;;;;;6.57;28.34;97209.53;4930898;29;20623;-60
2022/03/20 07:58:19;;;;;;;15.73;9.00;;;;;;;6.68;28.15;97203.13;4931209;29;20219;-59
2022/03/20 08:00:47;;;;;;;17.05;10.20;;;;;;;6.98;27.72;97187.38;4931477;29;20204;-62
2022/03/20 08:03:15;;;;;;;22.15;12.25;;;;;;;6.32;27.99;97205.47;4931997;29;20710;-60
2022/03/20 08:05:42;;;;;;;15.38;9.82;;;;;;;6.35;28.71;97204.34;4930581;29;20259;-58
2022/03/20 08:08:14;;;;;;;14.15;9.40;;;;;;;6.37;28.61;97202.38;4931529;29;20742;-56
2022/03/20 08:10:42;;;;;;;18.70;9.10;;;;;;;6.54;33.14;97199.47;4931409;29;20209;-55
2022/03/20 08:13:11;;;;;;;16.70;9.88;;;;;;;6.31;28.68;97203.06;4931890;29;20251;-64
2022/03/20 08:15:39;;;;;;;13.00;8.25;;;;;;;7.39;33.65;97190.38;4930615;29;20220;-64
2022/03/20 08:18:07;;;;;;;20.90;14.02;;;;;;;7.33;30.05;97179.84;4931897;29;20204;-57
2022/03/20 08:20:35;;;;;;;18.50;11.18;;;;;;;7.17;27.77;97186.84;4931291;29;20200;-61
2022/03/20 08:23:06;;;;;;;27.98;18.40;;;;;;;6.86;27.80;97183.56;4931822;29;20185;-61
2022/03/20 08:25:33;;;;;;;17.27;11.73;;;;;;;6.96;27.63;97184.13;4931453;29;20682;-63
2022/03/20 08:28:00;;;;;;;12.50;7.07;;;;;;;6.69;27.48;97182.09;4931661;29;20264;-58
2022/03/20 08:30:27;;;;;;;13.10;7.68;;;;;;;6.32;27.37;97169.03;4931264;29;20215;-64
2022/03/20 08:32:54;;;;;;;13.02;8.20;;;;;;;6.48;27.76;97148.06;4931308;29;20200;-59
2022/03/20 08:35:21;;;;;;;14.40;8.15;;;;;;;6.72;27.33;97171.31;4931029;29;20200;-58
2022/03/20 08:37:50;;;;;;;13.45;7.97;;;;;;;6.87;27.63;97166.97;4931487;29;20299;-62
2022/03/20 08:40:19;;;;;;;11.45;7.75;;;;;;;6.72;27.17;97165.28;4931144;29;20201;-59
2022/03/20 08:42:52;;;;;;;14.20;8.38;;;;;;;6.58;26.47;97164.28;4931237;29;20252;-53
2022/03/20 08:45:24;;;;;;;14.02;8.93;;;;;;;6.64;26.06;97150.53;4930673;29;20185;-57
2022/03/20 08:47:51;;;;;;;13.02;7.78;;;;;;;7.05;26.29;97136.16;4931582;29;20227;-60
2022/03/20 08:50:19;;;;;;;25.83;16.50;;;;;;;7.40;27.42;97152.06;4930939;29;20616;-62
2022/03/20 08:52:47;;;;;;;14.23;8.40;;;;;;;7.45;26.87;97147.94;4931335;29;20204;-63
2022/03/20 08:55:16;;;;;;;11.00;6.90;;;;;;;7.72;25.88;97156.91;4931004;29;20228;-60
2022/03/20 08:57:52;;;;;;;9.35;5.30;;;;;;;7.32;23.90;97137.31;4931700;29;20635;-56
2022/03/20 09:00:22;;;;;;;11.27;5.40;;;;;;;7.87;24.98;97131.56;4934232;29;20558;-56
2022/03/20 09:02:50;;;;;;;12.25;5.53;;;;;;;7.45;24.70;97127.06;4934486;29;20223;-56
2022/03/20 09:05:18;;;;;;;9.05;5.85;;;;;;;7.75;24.88;97133.06;4934726;29;20315;-59
2022/03/20 09:07:48;;;;;;;10.15;6.40;;;;;;;8.00;24.62;97131.72;4935027;29;20637;-62
2022/03/20 09:10:16;;;;;;;14.13;5.90;;;;;;;8.46;24.51;97132.22;4934864;29;20259;-64
2022/03/20 09:12:44;;;;;;;9.00;4.78;;;;;;;7.74;23.37;97131.41;4934742;29;20660;-56
2022/03/20 09:15:15;;;;;;;8.00;4.50;;;;;;;7.89;24.30;97103.47;4934349;29;20277;-62
2022/03/20 09:20:36;;;;;;;7.20;4.90;;;;;;;8.15;23.58;97129.88;4934505;29;20208;-62
2022/03/20 09:23:07;;;;;;;7.32;4.72;;;;;;;8.79;23.58;97107.97;4935177;29;20580;-60
2022/03/20 09:25:34;;;;;;;9.38;5.15;;;;;;;8.99;23.36;97108.09;4934030;29;20211;-57
2022/03/20 09:28:04;;;;;;;9.67;4.83;;;;;;;9.27;22.76;97101.00;4934582;29;20204;-63
2022/03/20 09:30:32;;;;;;;18.77;13.00;;;;;;;9.52;23.25;97101.34;4934112;29;20978;-61
2022/03/20 09:33:02;;;;;;;33.30;24.03;;;;;;;9.62;22.68;97088.69;4934740;29;20212;-53
2022/03/20 09:35:29;;;;;;;8.20;5.27;;;;;;;9.53;21.53;97088.06;4921434;29;20553;-57
2022/03/20 09:37:56;;;;;;;8.20;5.15;;;;;;;9.39;22.44;97093.41;4934537;29;20475;-55
2022/03/20 09:40:32;;;;;;;7.10;4.32;;;;;;;9.59;22.50;97083.84;4934022;29;20671;-62
2022/03/20 09:42:59;;;;;;;9.10;4.60;;;;;;;9.95;21.62;97084.34;4934242;29;20271;-62
2022/03/20 09:45:26;;;;;;;10.98;5.53;;;;;;;10.16;24.32;97082.41;4933742;29;20187;-52
2022/03/20 09:47:53;;;;;;;7.43;4.60;;;;;;;10.56;21.72;97083.28;4934358;29;20244;-58
2022/03/20 09:50:20;;;;;;;32.57;20.23;;;;;;;10.35;21.08;97091.31;4933949;29;20440;-59
2022/03/20 09:52:47;;;;;;;52.23;32.03;;;;;;;10.14;20.27;97084.41;4934332;29;20979;-57
2022/03/20 09:55:14;;;;;;;16.80;11.53;;;;;;;10.07;22.02;97075.72;4934035;29;20546;-59
2022/03/20 09:57:41;;;;;;;8.20;4.97;;;;;;;10.61;21.48;97074.78;4926903;29;20452;-60
2022/03/20 10:00:11;;;;;;;9.77;6.10;;;;;;;10.32;20.57;97064.69;4932475;29;20448;-61
2022/03/20 10:02:38;;;;;;;9.90;5.50;;;;;;;10.22;20.41;97062.47;4931278;29;20535;-62
2022/03/20 10:05:08;;;;;;;7.70;4.70;;;;;;;10.88;20.95;97058.81;4932956;29;20463;-58
2022/03/20 10:07:40;;;;;;;6.97;5.03;;;;;;;10.77;20.32;97069.94;4932547;29;21161;-64
2022/03/20 10:10:17;;;;;;;9.37;5.27;;;;;;;11.30;20.28;97056.69;4931820;29;20539;-62
2022/03/20 10:12:51;;;;;;;8.33;5.23;;;;;;;10.81;20.60;97059.84;4931538;29;20544;-64
2022/03/20 10:15:27;;;;;;;9.77;5.10;;;;;;;10.69;20.24;97061.47;4930750;29;20506;-64
2022/03/20 10:18:08;;;;;;;7.83;4.67;;;;;;;11.04;19.92;97049.69;4928247;29;20912;-61
2022/03/20 10:20:38;;;;;;;9.37;5.07;;;;;;;10.97;20.74;97054.97;4932406;29;20437;-60
2022/03/20 10:23:41;;;;;;;7.63;4.97;;;;;;;11.22;19.86;97050.66;4933296;29;20448;-62
2022/03/20 10:26:10;;;;;;;6.53;4.63;;;;;;;10.67;19.82;97047.75;4931616;29;20998;-66
2022/03/20 10:28:41;;;;;;;6.97;4.90;;;;;;;10.86;20.20;97057.41;4932918;29;20456;-60
2022/03/20 10:31:23;;;;;;;7.63;5.17;;;;;;;10.99;19.92;97042.47;4932149;29;20440;-62
2022/03/20 10:34:04;;;;;;;9.03;4.90;;;;;;;11.49;20.38;97059.25;4934403;29;20484;-60
2022/03/20 10:36:34;;;;;;;7.77;5.07;;;;;;;11.36;19.14;97037.50;4929413;29;20488;-63
2022/03/20 10:39:02;;;;;;;7.33;4.97;;;;;;;11.01;19.86;97035.19;4929658;29;20445;-61
2022/03/20 10:41:34;;;;;;;8.53;4.97;;;;;;;10.78;19.79;97045.34;4931581;29;20452;-58
2022/03/20 10:44:26;;;;;;;7.57;5.37;;;;;;;11.06;20.22;97042.44;4928718;29;20508;-60
2022/03/20 10:47:09;;;;;;;8.07;4.90;;;;;;;11.12;19.79;97031.94;4926775;29;20463;-61
2022/03/20 10:49:38;;;;;;;10.87;5.47;;;;;;;11.21;22.46;97035.94;4929290;29;20448;-65
2022/03/20 10:52:07;;;;;;;8.07;5.53;;;;;;;11.29;19.39;97026.22;4931376;29;20447;-50
2022/03/20 10:54:53;;;;;;;11.83;5.60;;;;;;;11.33;20.09;97024.81;4931739;29;20495;-54
2022/03/20 10:57:21;;;;;;;8.13;5.40;;;;;;;11.26;21.06;97022.19;4932285;29;20459;-63
2022/03/20 10:59:59;;;;;;;7.80;5.40;;;;;;;10.82;20.56;97020.28;4932207;29;20614;-60
2022/03/20 11:02:27;;;;;;;12.60;6.23;;;;;;;11.09;20.10;97016.59;4932741;29;20959;-59
2022/03/20 11:04:54;;;;;;;9.63;5.77;;;;;;;10.40;21.62;97019.97;4931934;29;20524;-59
2022/03/20 11:07:23;;;;;;;9.70;6.27;;;;;;;10.55;21.48;97016.09;4916274;29;20813;-59
2022/03/20 11:09:53;;;;;;;9.37;5.73;;;;;;;10.63;20.98;97015.09;4933008;29;20453;-60
2022/03/20 11:12:26;;;;;;;8.73;5.63;;;;;;;10.73;21.59;97011.03;4932802;29;20456;-65
2022/03/20 11:14:59;;;;;;;7.93;5.67;;;;;;;10.97;21.39;97006.94;4932360;29;21014;-63
2022/03/20 11:17:32;;;;;;;10.57;6.30;;;;;;;10.68;21.89;97002.97;4932821;29;20436;-60
2022/03/20 11:20:02;;;;;;;7.60;5.93;;;;;;;10.57;20.97;96998.34;4931951;29;20522;-61
2022/03/20 11:22:30;;;;;;;11.07;6.10;;;;;;;10.86;20.88;96994.47;4932782;29;20982;-62
2022/03/20 11:24:57;;;;;;;8.93;5.80;;;;;;;11.73;20.54;96989.50;4931914;29;20519;-64
2022/03/20 11:27:30;;;;;;;8.17;5.50;;;;;;;10.71;19.86;96994.69;4932403;29;20534;-55
2022/03/20 11:30:03;;;;;;;11.37;5.80;;;;;;;11.68;19.52;96984.03;4932113;29;20487;-61
2022/03/20 11:32:30;;;;;;;16.90;14.57;;;;;;;12.12;19.99;96981.31;4932353;29;20459;-65
2022/03/20 11:34:57;;;;;;;13.77;9.07;;;;;;;12.04;19.87;96973.72;4931725;29;20460;-66
2022/03/20 11:37:44;;;;;;;8.47;6.17;;;;;;;12.13;20.16;96975.06;4932118;29;20527;-61
2022/03/20 11:40:17;;;;;;;7.10;5.27;;;;;;;12.07;20.60;96968.84;4932134;29;20531;-63
2022/03/20 11:42:44;;;;;;;10.50;6.43;;;;;;;11.65;21.79;96980.03;4933028;29;20491;-63
2022/03/20 11:45:18;;;;;;;14.53;5.90;;;;;;;11.86;21.90;96971.03;4933040;29;20925;-64
2022/03/20 11:47:50;;;;;;;18.23;6.80;;;;;;;12.50;20.75;96960.19;4936112;29;20461;-63
2022/03/20 11:50:20;;;;;;;10.43;5.57;;;;;;;12.32;19.82;96971.44;4933588;29;20429;-62
2022/03/20 11:52:58;;;;;;;9.33;5.87;;;;;;;12.04;19.49;96965.84;4934654;29;20815;-65
2022/03/20 11:55:35;;;;;;;9.57;5.47;;;;;;;12.81;18.89;96955.59;4934186;29;20858;-71
2022/03/20 11:58:10;;;;;;;7.00;5.33;;;;;;;12.99;19.18;96952.94;4932016;29;20458;-67
2022/03/20 12:00:41;;;;;;;9.30;4.87;;;;;;;13.19;18.81;96956.19;4931584;29;20823;-68
2022/03/20 12:03:15;;;;;;;8.37;6.10;;;;;;;13.62;18.58;96950.78;4933723;29;20441;-64
2022/03/20 12:06:20;;;;;;;10.03;5.57;;;;;;;13.03;18.74;96951.53;4932328;29;20435;-69
2022/03/20 12:09:20;;;;;;;8.00;5.70;;;;;;;13.50;19.20;96949.13;4932474;29;20542;-65
2022/03/20 12:12:07;;;;;;;10.17;5.93;;;;;;;13.21;18.29;96946.25;4933000;29;20459;-62
2022/03/20 12:14:48;;;;;;;10.07;5.70;;;;;;;13.31;18.00;96943.09;4931717;29;20475;-62
2022/03/20 12:17:15;;;;;;;23.57;13.23;;;;;;;12.59;19.07;96951.00;4932409;29;20846;-58
2022/03/20 12:19:43;;;;;;;15.87;8.87;;;;;;;12.96;18.91;96947.31;4931948;29;20540;-63
2022/03/20 12:22:16;;;;;;;15.70;5.63;;;;;;;13.08;19.08;96945.63;4933299;29;21033;-55
2022/03/20 12:24:52;;;;;;;8.83;5.77;;;;;;;13.33;18.48;96953.38;4934256;29;20594;-57
2022/03/20 12:27:22;;;;;;;6.63;4.77;;;;;;;13.09;18.22;96942.75;4934593;29;20963;-60
2022/03/20 12:29:49;;;;;;;8.90;5.37;;;;;;;13.32;18.01;96936.78;4935918;29;21022;-63
2022/03/20 12:32:21;;;;;;;6.10;4.80;;;;;;;13.74;17.85;96942.91;4934247;29;21019;-61
2022/03/20 12:34:59;;;;;;;7.07;5.10;;;;;;;13.35;17.53;96930.28;4936052;29;20496;-58
2022/03/20 12:37:33;;;;;;;9.70;5.13;;;;;;;13.64;18.16;96935.53;4936144;29;20476;-65
2022/03/20 12:40:11;;;;;;;10.80;5.37;;;;;;;14.01;17.79;96930.94;4932458;29;20503;-66
2022/03/20 12:43:13;;;;;;;9.37;4.77;;;;;;;13.78;18.26;96931.69;4932481;29;20471;-59
2022/03/20 12:45:46;;;;;;;8.57;5.40;;;;;;;13.65;18.58;96925.81;4931433;29;20895;-64
2022/03/20 12:48:17;;;;;;;8.30;5.87;;;;;;;13.72;17.85;96921.25;4930631;29;20958;-62
2022/03/20 12:50:52;;;;;;;10.17;6.13;;;;;;;13.39;18.45;96926.19;4931648;29;20583;-69
2022/03/20 12:53:21;;;;;;;8.17;5.13;;;;;;;13.73;18.54;96922.84;4931997;29;20527;-62
2022/03/20 12:55:59;;;;;;;7.47;5.13;;;;;;;14.28;18.52;96908.41;4931036;29;20530;-68
2022/03/20 12:58:28;;;;;;;9.27;5.47;;;;;;;14.32;17.38;96912.19;4931588;29;20826;-62
2022/03/20 13:00:58;;;;;;;9.40;5.60;;;;;;;14.08;17.82;96915.81;4914096;29;20889;-62
2022/03/20 13:03:29;;;;;;;12.77;7.63;;;;;;;14.05;17.56;96921.53;4931603;29;20479;-64
2022/03/20 13:05:58;;;;;;;13.43;6.97;;;;;;;14.57;17.73;96904.81;4930869;29;20455;-67
2022/03/20 13:08:35;;;;;;;9.00;5.77;;;;;;;13.85;20.67;96905.25;4931883;29;20455;-63
2022/03/20 13:11:48;;;;;;;10.00;7.37;;;;;;;13.73;17.83;96912.31;4930057;29;20443;-63
2022/03/20 13:14:08;;;;;;;9.23;5.57;;;;;;;14.36;18.21;96905.41;4931161;29;20474;-58
2022/03/20 13:16:35;;;;;;;8.80;5.37;;;;;;;14.10;22.66;96913.75;4931719;29;20448;-67
2022/03/20 13:19:03;;;;;;;8.30;4.80;;;;;;;13.99;18.25;96902.16;4930782;29;20452;-69
2022/03/20 13:21:30;;;;;;;5.87;4.70;;;;;;;14.78;17.25;96891.00;4931096;29;20526;-69
2022/03/20 13:23:57;;;;;;;10.13;5.40;;;;;;;14.60;17.17;96899.06;4930690;29;20459;-70
2022/03/20 13:26:24;;;;;;;7.43;4.87;;;;;;;14.65;17.54;96907.09;4931206;29;20554;-63
2022/03/20 13:28:52;;;;;;;7.60;4.83;;;;;;;15.18;17.07;96891.81;4931259;29;20464;-64
2022/03/20 13:31:21;;;;;;;6.90;4.90;;;;;;;15.70;17.35;96887.25;4930994;29;20520;-60
2022/03/20 13:33:57;;;;;;;6.93;5.17;;;;;;;15.45;16.85;96888.63;4929383;29;20923;-60
2022/03/20 13:36:26;;;;;;;7.17;5.20;;;;;;;15.08;17.13;96896.09;4930766;29;20502;-60
2022/03/20 13:38:55;;;;;;;8.57;5.50;;;;;;;14.70;17.05;96886.13;4930985;29;20471;-57
2022/03/20 13:41:26;;;;;;;12.30;6.17;;;;;;;14.23;17.32;96884.53;4931011;29;20449;-66
2022/03/20 13:43:58;;;;;;;60.07;42.67;;;;;;;14.96;18.26;96885.56;4931478;29;21075;-59
2022/03/20 13:46:27;;;;;;;8.23;5.50;;;;;;;13.93;17.75;96892.53;4934766;29;20479;-65
2022/03/20 13:49:01;;;;;;;7.73;5.00;;;;;;;14.47;16.45;96872.94;4933849;29;21045;-59
2022/03/20 13:51:29;;;;;;;8.87;5.50;;;;;;;14.48;17.45;96869.28;4934371;29;20448;-69
2022/03/20 13:54:19;;;;;;;7.23;4.90;;;;;;;14.54;21.83;96872.84;4933829;29;20875;-64
2022/03/20 13:57:07;;;;;;;7.07;4.70;;;;;;;14.87;16.10;96862.44;4934614;29;20432;-65